Flugplatz Wolfhagen Graner Berg

Für EDGW sind keine METAR/TAF Berichte vorhanden.
Es werden die Flugwettermeldungen vom Flugplatz Kassel-Calden in 17 km Entfernung angezeigt.

Bericht für EDVK

vom 23.05. um 18:20 UTC

variable Windrichtung mit 2 kt

Sichtweite 10 km oder mehr

gute Sicht, keine Wolken < 5000 ft, keine CB, keine Wettererscheinungen (CAVOK)

Temperatur 17.0°C

Taupunkt 10.0°C

Luftfeuchtigkeit 63%

Luftdruck 1017 hPa

EDVK 231820Z VRB02KT CAVOK 17/10 Q1017

Prognose für EDVK

vom 23.05. um 17:00 UTC

Zwischen 18:00 UTC und 03:00 UTC

variable Windrichtung mit 3 kt

Sichtweite 10 km oder mehr

keine signifikanten Wettererscheinungen

keine Wolken

TAF EDVK 231700Z 2318/2403 VRB03KT CAVOK
Impressum